Latest Weather Observations for Swan Island

IDT60801

Issued at 2:31 am EDT Monday 18 November 2019 (issued every 10 minutes, with the page automatically refreshed every 10 minutes)

About weather observations | Map of weather stations | Latest weather observations for TAS | Other Formats
Station Details ID: 092123 Name: SWAN ISLAND Lat: -40.73 Lon: 148.12 Height: 15.0 m
Data from the previous 72 hours. | See also: Recent months at Swan Island
Date/Time
EDT
Temp
°C
App
Temp
°C
Dew
Point
°C
Rel
Hum
%
Delta-T
°C
Wind Press
QNH
hPa
Press
MSL
hPa
Rain since
9am
mm
Dir  Spd
km/h
Gust
km/h
Spd
kts
Gust
kts
18/02:30am 11.5 4.4 6.4 71 2.4 W 33 50 18 27 1013.1 1013.0 0.0
18/02:03am 11.3 3.8 6.4 72 2.3 W 35 56 19 30 1013.4 1013.3 0.0
18/02:00am 11.3 3.4 6.4 72 2.3 W 37 56 20 30 1013.6 1013.5 0.0
18/01:48am 11.2 2.9 6.3 72 2.3 W 39 57 21 31 1013.9 1013.8 0.0
18/01:30am 11.2 2.6 6.3 72 2.3 W 41 57 22 31 1014.2 1014.1 0.0
18/01:00am 11.4 4.6 6.9 74 2.1 W 32 52 17 28 1014.6 1014.5 0.0
18/12:43am 11.4 4.6 6.7 73 2.2 W 32 50 17 27 1014.8 1014.7 0.0
18/12:30am 11.5 4.7 6.8 73 2.2 W 32 46 17 25 1014.9 1014.8 0.0
18/12:02am 11.5 5.4 6.8 73 2.2 W 28 48 15 26 1015.5 1015.4 0.0
18/12:00am 11.6 5.6 6.9 73 2.2 W 28 39 15 21 1015.6 1015.5 0.0
 
Date/Time
EDT
Temp
°C
App
Temp
°C
Dew
Point
°C
Rel
Hum
%
Delta-T
°C
Wind Press
QNH
hPa
Press
MSL
hPa
Rain since
9am
mm
Dir  Spd
km/h
Gust
km/h
Spd
kts
Gust
kts
17/11:31pm 11.8 5.0 7.1 73 2.3 W 32 52 17 28 1015.6 1015.5 0.0
17/11:30pm 11.8 5.0 7.1 73 2.3 W 32 48 17 26 1015.6 1015.5 0.0
17/11:00pm 12.0 6.5 7.5 74 2.2 W 26 43 14 23 1015.5 1015.4 0.0
17/10:30pm 12.2 6.8 7.9 75 2.1 W 26 39 14 21 1015.9 1015.8 0.0
17/10:00pm 12.3 6.9 8.0 75 2.1 W 26 39 14 21 1016.1 1016.0 0.0
17/09:30pm 12.4 7.0 8.1 75 2.1 W 26 39 14 21 1015.9 1015.8 0.0
17/09:00pm 12.5 6.7 8.0 74 2.2 W 28 39 15 21 1016.0 1015.9 0.0
17/08:30pm 12.5 6.3 8.0 74 2.2 W 30 39 16 21 1016.0 1015.9 0.0
17/08:00pm 12.5 6.7 7.8 73 2.3 W 28 41 15 22 1015.8 1015.7 0.0
17/07:30pm 12.9 6.1 7.8 71 2.5 W 33 43 18 23 1015.8 1015.7 0.0
17/07:00pm 13.6 6.1 7.8 68 2.9 W 37 48 20 26 1015.5 1015.4 0.0
17/06:30pm 13.7 6.1 7.7 67 3.0 W 37 50 20 27 1015.0 1014.9 0.0
17/06:00pm 14.0 5.6 7.5 65 3.2 W 41 54 22 29 1015.1 1015.0 0.0
17/05:30pm 14.3 7.0 7.1 62 3.5 W 35 50 19 27 1015.0 1014.9 0.0
17/05:28pm 14.4 7.7 7.5 63 3.4 W 32 50 17 27 1015.1 1015.0 0.0
17/05:00pm 14.8 6.8 7.4 61 3.6 W 39 54 21 29 1015.0 1014.9 0.0
17/04:45pm 15.2 9.3 7.7 61 3.7 W 28 48 15 26 1015.1 1015.0 0.0
17/04:30pm 14.9 9.0 7.5 61 3.7 W 28 43 15 23 1015.1 1015.0 0.0
17/04:00pm 14.9 8.1 7.0 59 3.9 WNW 32 43 17 23 1015.2 1015.1 0.0
17/03:30pm 15.5 8.7 7.8 60 3.8 WNW 33 46 18 25 1015.3 1015.2 0.0
17/03:00pm 15.1 8.3 6.7 57 4.1 WNW 32 46 17 25 1015.8 1015.7 0.0
17/02:33pm 15.5 9.6 7.3 58 4.1 WNW 28 46 15 25 1015.8 1015.7 0.0
17/02:30pm 15.4 9.0 6.9 57 4.2 WNW 30 46 16 25 1015.9 1015.8 0.0
17/02:00pm 15.8 9.8 7.1 56 4.3 WNW 28 39 15 21 1016.2 1016.1 0.0
17/01:30pm 15.4 10.0 6.2 54 4.4 WNW 24 37 13 20 1016.2 1016.1 0.0
17/01:00pm 15.0 8.2 5.2 52 4.6 WNW 30 39 16 21 1016.2 1016.1 0.0
17/12:30pm 15.3 9.5 6.3 55 4.4 WNW 26 37 14 20 1016.2 1016.1 0.0
17/12:00pm 14.7 9.1 5.5 54 4.4 WNW 24 33 13 18 1016.4 1016.3 0.0
17/11:30am 15.8 10.2 5.4 50 5.0 W 24 37 13 20 1016.5 1016.4 0.0
17/11:00am 15.4 10.1 4.8 49 5.0 W 22 32 12 17 1016.6 1016.5 0.0
17/10:30am 14.6 9.2 4.6 51 4.6 W 22 28 12 15 1016.3 1016.2 0.0
17/10:00am 13.9 8.0 3.7 50 4.6 W 24 33 13 18 1016.0 1015.9 0.0
17/09:30am 13.5 7.6 4.1 53 4.3 W 24 33 13 18 1016.1 1016.0 0.0
17/09:00am 12.4 6.4 3.6 55 3.9 W 24 32 13 17 1016.2 1016.1 0.0
17/08:30am 11.8 6.3 4.1 59 3.5 W 22 30 12 16 1015.8 1015.7 0.0
17/08:00am 11.3 6.2 4.1 61 3.2 WSW 20 28 11 15 1015.6 1015.5 0.0
17/07:30am 10.4 5.9 4.1 65 2.8 WSW 17 28 9 15 1015.3 1015.2 0.0
17/07:00am 9.7 5.7 4.9 72 2.2 WSW 15 22 8 12 1014.9 1014.8 0.0
17/06:30am 9.1 5.4 4.5 73 2.0 SW 13 20 7 11 1014.7 1014.6 0.0
17/06:00am 8.8 4.7 4.2 73 2.0 WSW 15 20 8 11 1014.0 1013.9 0.0
17/05:30am 8.8 4.6 4.0 72 2.1 WSW 15 20 8 11 1013.9 1013.8 0.0
17/05:00am 9.3 4.4 4.1 70 2.3 WSW 19 32 10 17 1013.5 1013.4 0.0
17/04:30am 10.1 4.4 4.7 69 2.4 WSW 24 35 13 19 1013.1 1013.0 0.0
17/04:00am 10.6 4.7 5.8 72 2.2 W 26 41 14 22 1013.0 1012.9 0.0
17/03:30am 10.7 3.6 5.7 71 2.3 W 32 44 17 24 1012.7 1012.6 0.0
17/03:00am 10.9 3.8 6.3 73 2.2 W 33 44 18 24 1012.6 1012.5 0.0
17/02:30am 10.9 3.8 6.3 73 2.2 W 33 50 18 27 1012.6 1012.5 0.0
17/02:00am 10.9 3.0 6.3 73 2.2 W 37 52 20 28 1012.3 1012.2 0.0
17/01:31am 11.0 4.1 6.4 73 2.2 W 32 50 17 27 1012.4 1012.3 0.0
17/01:30am 11.1 4.2 6.5 73 2.2 W 32 46 17 25 1012.5 1012.4 0.0
17/01:00am 11.2 4.1 6.3 72 2.3 W 33 48 18 26 1012.5 1012.4 0.0
17/12:30am 11.1 4.0 6.3 72 2.2 W 33 48 18 26 1012.6 1012.5 0.0
17/12:00am 11.4 2.8 6.3 71 2.4 W 41 56 22 30 1012.8 1012.7 0.0
 
Date/Time
EDT
Temp
°C
App
Temp
°C
Dew
Point
°C
Rel
Hum
%
Delta-T
°C
Wind Press
QNH
hPa
Press
MSL
hPa
Rain since
9am
mm
Dir  Spd
km/h
Gust
km/h
Spd
kts
Gust
kts
16/11:30pm 11.4 2.8 6.3 71 2.4 W 41 56 22 30 1013.0 1012.9 0.0
16/11:00pm 11.4 3.9 6.3 71 2.4 W 35 52 19 28 1013.0 1012.9 0.0
16/10:56pm 11.4 4.3 6.5 72 2.3 W 33 52 18 28 1013.0 1012.9 0.0
16/10:30pm 11.6 4.7 6.5 71 2.4 W 32 44 17 24 1013.1 1013.0 0.0
16/10:04pm 11.7 4.8 6.4 70 2.5 W 32 52 17 28 1012.8 1012.7 0.0
16/10:00pm 11.6 4.7 6.3 70 2.5 W 32 50 17 27 1012.9 1012.8 0.0
16/09:43pm 11.6 4.5 6.3 70 2.5 W 33 54 18 29 1012.9 1012.8 0.0
16/09:30pm 11.9 4.8 6.6 70 2.5 W 33 50 18 27 1012.9 1012.8 0.0
16/09:19pm 11.8 4.8 6.7 71 2.4 W 33 52 18 28 1012.7 1012.6 0.0
16/09:00pm 11.9 4.9 7.0 72 2.3 W 33 48 18 26 1012.6 1012.5 0.0
16/08:30pm 12.0 4.6 6.9 71 2.4 W 35 57 19 31 1012.1 1012.0 0.0
16/08:00pm 12.2 4.5 6.9 70 2.5 WNW 37 57 20 31 1011.5 1011.4 0.0
16/07:30pm 12.3 3.7 6.6 68 2.7 W 41 63 22 34 1011.3 1011.2 0.0
16/07:00pm 12.6 3.1 6.6 67 2.9 WNW 46 69 25 37 1010.7 1010.7 0.0
16/06:30pm 12.8 3.7 6.8 67 2.9 W 44 65 24 35 1010.5 1010.5 0.0
16/06:00pm 12.8 3.4 7.3 69 2.7 WNW 46 70 25 38 1010.3 1010.3 0.0
16/05:30pm 13.0 3.6 7.0 67 2.9 WNW 46 65 25 35 1010.3 1010.3 0.0
16/05:00pm 13.7 4.5 7.9 68 2.9 WNW 46 65 25 35 1010.0 1010.0 0.0
16/04:31pm 13.9 3.6 6.7 62 3.5 WNW 50 69 27 37 1010.0 1010.0 0.0
16/04:30pm 13.9 3.6 6.7 62 3.5 WNW 50 69 27 37 1010.0 1010.0 0.0
16/04:00pm 14.2 4.9 7.7 65 3.2 WNW 46 67 25 36 1010.0 1010.0 0.0
16/03:37pm 14.2 5.2 7.3 63 3.4 WNW 44 63 24 34 1010.0 1010.0 0.0
16/03:30pm 14.3 5.6 7.6 64 3.3 WNW 43 57 23 31 1010.1 1010.1 0.0
16/03:00pm 14.5 6.3 8.0 65 3.2 WNW 41 59 22 32 1010.5 1010.5 0.0
16/02:30pm 14.7 5.5 6.5 58 4.0 WNW 44 67 24 36 1010.4 1010.4 0.0
16/02:00pm 14.4 5.3 6.0 57 4.0 WNW 43 63 23 34 1010.4 1010.4 0.0
16/01:30pm 14.3 6.5 6.6 60 3.7 WNW 37 59 20 32 1010.9 1010.8 0.0
16/01:09pm 14.6 6.1 6.9 60 3.8 WNW 41 61 22 33 1010.9 1010.8 0.0
16/01:00pm 14.3 5.4 6.9 61 3.6 WNW 43 57 23 31 1010.9 1010.8 0.0
16/12:43pm 14.7 7.0 7.0 60 3.8 WNW 37 56 20 30 1011.2 1011.1 0.0
16/12:30pm 14.3 5.7 6.6 60 3.7 WNW 41 57 22 31 1011.2 1011.1 0.0
16/12:07pm 14.5 7.1 6.6 59 3.8 WNW 35 54 19 29 1011.1 1011.0 0.0
16/12:00pm 14.4 6.8 6.0 57 4.0 W 35 52 19 28 1011.0 1010.9 0.0
16/11:38am 14.4 6.7 5.2 54 4.3 W 35 61 19 33 1011.4 1011.3 0.0
16/11:30am 14.3 6.3 5.7 56 4.1 W 37 54 20 29 1011.4 1011.3 0.0
16/11:01am 14.0 6.6 6.6 61 3.6 W 35 56 19 30 1011.4 1011.3 0.0
16/11:00am 13.7 6.2 6.3 61 3.5 W 35 52 19 28 1011.4 1011.3 0.0
16/10:30am 13.2 5.3 6.1 62 3.4 W 37 56 20 30 1011.2 1011.1 0.0
16/10:08am 14.1 7.3 6.9 62 3.5 W 32 52 17 28 1011.3 1011.2 0.0
16/10:00am 13.8 7.0 6.7 62 3.4 W 32 50 17 27 1011.4 1011.3 0.0
16/09:30am 13.2 6.0 5.9 61 3.4 W 33 59 18 32 1011.2 1011.1 0.0
16/09:00am 12.8 5.1 5.5 61 3.4 W 35 57 19 31 1011.3 1011.2 0.0
16/08:32am 12.6 5.4 6.0 64 3.1 W 33 54 18 29 1011.4 1011.3 0.0
16/08:30am 12.8 5.7 6.2 64 3.1 W 33 44 18 24 1011.5 1011.4 0.0
16/08:16am 12.3 4.7 5.7 64 3.1 W 35 54 19 29 1011.4 1011.3 0.0
16/08:00am 12.0 3.6 5.4 64 3.1 W 39 52 21 28 1011.2 1011.1 0.0
16/07:30am 11.6 2.7 5.0 64 3.0 W 41 52 22 28 1010.7 1010.7 0.0
16/07:00am 11.0 2.9 5.1 67 2.7 W 37 50 20 27 1010.5 1010.5 0.0
16/06:30am 10.4 1.8 4.5 67 2.6 W 39 54 21 29 1010.1 1010.1 0.0
16/06:00am 10.3 1.7 4.9 69 2.4 W 39 59 21 32 1009.6 1009.6 0.0
16/05:49am 10.3 2.1 4.9 69 2.4 W 37 56 20 30 1009.5 1009.5 0.0
16/05:30am 10.3 1.7 4.9 69 2.4 W 39 54 21 29 1009.3 1009.3 0.0
16/05:00am 10.3 1.8 5.1 70 2.4 W 39 52 21 28 1008.9 1008.9 0.0
16/04:32am 10.3 2.3 5.5 72 2.2 W 37 56 20 30 1008.7 1008.7 0.0
16/04:30am 10.3 1.8 5.3 71 2.3 W 39 57 21 31 1008.7 1008.7 0.0
16/04:13am 10.3 1.8 5.3 71 2.3 W 39 57 21 31 1008.5 1008.5 0.0
16/04:00am 10.4 0.6 5.2 70 2.4 W 46 61 25 33 1008.4 1008.4 0.0
16/03:30am 10.5 0.7 5.1 69 2.5 W 46 65 25 35 1008.2 1008.2 0.0
16/03:14am 10.8 1.4 5.6 70 2.4 W 44 63 24 34 1008.1 1008.1 0.0
16/03:00am 10.5 1.0 5.1 69 2.5 W 44 63 24 34 1008.1 1008.1 0.0
16/02:32am 10.7 0.9 5.5 70 2.4 W 46 65 25 35 1008.0 1008.0 0.0
16/02:30am 10.6 0.4 5.4 70 2.4 W 48 65 26 35 1008.0 1008.0 0.0
16/02:01am 10.5 1.0 5.1 69 2.5 W 44 63 24 34 1008.2 1008.2 0.0
16/02:00am 10.5 1.0 5.1 69 2.5 W 44 61 24 33 1008.2 1008.2 0.0
16/01:33am 10.6 0.8 5.4 70 2.4 W 46 65 25 35 1008.2 1008.2 0.0
16/01:30am 10.7 0.6 5.5 70 2.4 W 48 65 26 35 1008.2 1008.2 0.0
16/01:21am 10.7 1.5 5.5 70 2.4 W 43 61 23 33 1008.3 1008.3 0.0
16/01:00am 10.8 0.6 5.3 69 2.5 W 48 61 26 33 1008.2 1008.2 0.0
16/12:30am 11.1 0.6 5.4 68 2.6 W 50 63 27 34 1008.0 1008.0 0.0
16/12:06am 11.3 2.6 6.2 71 2.4 W 41 59 22 32 1007.9 1007.9 0.0
16/12:00am 11.1 1.9 5.6 69 2.5 W 43 59 23 32 1007.8 1007.8 0.0
 
Date/Time
EDT
Temp
°C
App
Temp
°C
Dew
Point
°C
Rel
Hum
%
Delta-T
°C
Wind Press
QNH
hPa
Press
MSL
hPa
Rain since
9am
mm
Dir  Spd
km/h
Gust
km/h
Spd
kts
Gust
kts
15/11:30pm 11.3 0.3 5.2 66 2.8 W 52 70 28 38 1007.7 1007.7 0.0
15/11:21pm 11.4 1.3 5.5 67 2.7 W 48 67 26 36 1007.8 1007.8 0.0
15/11:00pm 11.5 1.8 5.8 68 2.7 W 46 63 25 34 1007.7 1007.7 0.0
15/10:30pm 11.8 2.1 5.9 67 2.8 W 46 67 25 36 1007.5 1007.5 0.0
15/10:00pm 11.8 2.7 5.9 67 2.8 W 43 63 23 34 1007.3 1007.3 0.0
15/09:38pm 11.8 1.7 5.9 67 2.8 W 48 69 26 37 1006.9 1006.9 0.0
15/09:30pm 11.9 1.8 5.8 66 2.8 W 48 65 26 35 1006.8 1006.8 0.0
15/09:00pm 12.1 2.0 5.5 64 3.1 W 48 69 26 37 1006.4 1006.4 0.0
15/08:36pm 12.3 2.5 5.5 63 3.2 W 46 65 25 35 1006.0 1006.0 0.0
15/08:30pm 12.4 2.1 4.9 60 3.4 W 48 65 26 35 1005.9 1005.9 0.0
15/08:07pm 12.5 4.1 5.7 63 3.2 W 39 57 21 31 1005.8 1005.8 0.0
15/08:00pm 12.5 3.7 5.4 62 3.3 W 41 59 22 32 1005.6 1005.6 0.0
15/07:30pm 12.9 3.6 5.8 62 3.3 W 44 65 24 35 1005.1 1005.1 0.0
15/07:00pm 13.2 3.5 5.6 60 3.6 W 46 67 25 36 1004.5 1004.5 0.0
15/06:30pm 13.4 3.2 5.3 58 3.8 W 48 69 26 37 1003.9 1003.9 0.0
15/06:01pm 13.7 5.1 6.3 61 3.5 W 41 61 22 33 1003.2 1003.2 0.0
15/06:00pm 13.7 5.1 6.3 61 3.6 W 41 57 22 31 1003.3 1003.3 0.0
15/05:30pm 13.8 5.3 7.1 64 3.3 W 41 65 22 35 1003.0 1003.0 0.0
15/05:00pm 14.3 6.4 7.8 65 3.2 W 39 61 21 33 1002.7 1002.7 0.0
15/04:30pm 14.3 5.6 7.6 64 3.3 W 43 65 23 35 1002.3 1002.3 0.0
15/04:00pm 14.8 5.4 7.1 60 3.8 W 46 67 25 36 1002.1 1002.1 0.0
15/03:30pm 15.2 6.6 8.0 62 3.6 W 43 65 23 35 1001.9 1001.9 0.0
15/03:06pm 14.9 5.4 8.2 64 3.4 WNW 48 67 26 36 1001.8 1001.8 0.0
15/03:00pm 14.6 4.6 7.9 64 3.4 WNW 50 67 27 36 1001.7 1001.7 0.0
15/02:43pm 14.9 6.1 7.9 63 3.5 WNW 44 65 24 35 1001.7 1001.7 0.0
15/02:30pm 15.0 5.6 7.1 59 3.9 WNW 46 61 25 33 1001.6 1001.6 0.0
15/02:04pm 15.4 6.5 7.7 60 3.8 WNW 44 65 24 35 1001.5 1001.5 0.0
15/02:00pm 15.0 5.3 7.3 60 3.8 WNW 48 65 26 35 1001.4 1001.4 0.0
15/01:30pm 15.0 6.5 7.1 59 3.9 W 41 61 22 33 1001.5 1001.5 0.0
15/01:00pm 14.6 5.0 6.4 58 4.0 WNW 46 67 25 36 1001.5 1001.5 0.0
15/12:30pm 14.7 4.8 5.0 52 4.5 W 46 65 25 35 1001.6 1001.6 0.0
15/12:00pm 14.8 5.2 6.1 56 4.2 W 46 72 25 39 1001.6 1001.6 0.0
15/11:30am 14.9 6.3 6.7 58 4.0 W 41 63 22 34 1001.6 1001.6 0.0
15/11:00am 14.8 6.6 8.1 64 3.4 W 41 61 22 33 1001.6 1001.6 0.0
15/10:30am 14.5 6.5 8.9 69 2.8 W 41 61 22 33 1001.6 1001.6 0.0
15/10:03am 14.2 6.5 8.6 69 2.8 W 39 59 21 32 1001.6 1001.6 0.0
15/10:00am 14.4 6.3 8.8 69 2.9 W 41 56 22 30 1001.6 1001.6 0.0
15/09:30am 14.1 5.6 9.1 72 2.5 WNW 44 67 24 36 1001.5 1001.5 0.0
15/09:08am 13.8 5.3 9.3 74 2.3 WNW 44 63 24 34 1001.4 1001.4 0.0
15/09:00am 13.6 5.1 9.1 74 2.3 WNW 44 63 24 34 1001.5 1001.5 0.0
15/08:35am 13.5 5.7 8.4 71 2.5 W 39 57 21 31 1001.6 1001.6 0.0
15/08:30am 13.6 6.2 8.4 71 2.6 W 37 56 20 30 1001.5 1001.5 0.0
15/08:09am 13.3 4.8 8.6 73 2.4 WNW 43 61 23 33 1001.5 1001.5 0.0
15/08:00am 13.3 4.8 8.6 73 2.4 WNW 43 61 23 33 1001.5 1001.5 0.0
15/07:35am 13.1 6.0 9.7 80 1.7 W 37 56 20 30 1001.5 1001.5 0.0
15/07:30am 13.1 5.7 9.7 80 1.7 WNW 39 56 21 30 1001.5 1001.5 0.0
15/07:08am 13.1 6.1 10.1 82 1.5 W 37 57 20 31 1001.7 1001.7 0.0
15/07:00am 12.9 5.9 9.9 82 1.5 W 37 54 20 29 1001.7 1001.7 0.0
15/06:32am 12.7 5.4 10.2 85 1.3 W 39 57 21 31 1001.8 1001.8 0.0
15/06:30am 12.5 4.8 10.0 85 1.3 W 41 57 22 31 1001.7 1001.7 0.0
15/06:02am 12.5 4.5 10.6 88 1.0 WNW 43 63 23 34 1001.3 1001.3 0.0
15/06:00am 12.5 4.3 10.4 87 1.1 WNW 44 63 24 34 1001.2 1001.2 0.0
15/05:30am 12.3 4.6 10.0 86 1.2 W 41 61 22 33 1001.0 1001.0 0.0
15/05:09am 12.4 4.7 10.0 85 1.2 W 41 61 22 33 1000.9 1000.9 0.0
15/05:00am 12.4 4.1 10.0 85 1.2 WNW 44 61 24 33 1000.9 1000.9 0.0
15/04:31am 12.7 4.4 9.9 83 1.4 WNW 44 63 24 34 1001.0 1001.0 0.0
15/04:30am 12.7 4.4 9.9 83 1.4 W 44 63 24 34 1001.0 1001.0 0.0
15/04:00am 12.6 4.3 10.0 84 1.3 W 44 63 24 34 1001.1 1001.1 0.0
15/03:35am 12.3 3.2 9.7 84 1.3 WNW 48 72 26 39 1000.8 1000.8 0.0
15/03:30am 12.3 3.2 9.7 84 1.3 WNW 48 63 26 34 1000.9 1000.9 0.0
15/03:00am 12.3 2.7 9.5 83 1.4 WNW 50 72 27 39 1000.9 1000.9 0.0
15/02:36am 12.4 3.7 9.8 84 1.3 WNW 46 70 25 38 1001.3 1001.3 0.0

Other formats

Comma delimited format used in spreadsheet applications
http://www.bom.gov.au/fwo/IDT60801/IDT60801.95985.axf

JavaScript Object Notation format (JSON) in row-major order
http://www.bom.gov.au/fwo/IDT60801/IDT60801.95985.json

Data quality

Most of these data are generated automatically and are frequently updated. Quality checks on data are not normally performed. It is possible for incorrect values to appear. Refer to information at About Latest Weather Observations and please check the disclaimer before using these data.